Chapel Lakes, Florida
Current Conditions -  °F | °C
As of 6:53 PM on Monday 20 Oct 2014 (Local Time) from KOPF Reporting Station
Light Rain Light Rain  
Wind Chill: 76°   Ceiling: 2800
Heat Index: 76°   Visibility: 10mi
Dew Point: 73°   Wind: 3mph
Humidity: 91%   Direction: 190°S
Pressure: 29.96"   Gusts: NA
Location:  26.0368°N, 80.6206°W
Report Text: KOPF 202253Z 19003KT 10SM -RA FEW008 BKN028 BKN080 24/23 A2996 RMK AO2 LTG DSNT SE AND S SLP146 P0007 T02440228
Loading
Personal Weather Stations






























Interactive Weather Map
Tropical Storm Tracking
New forecast layout! Learn more

10-Day Weather Forecast

Advertisements
Track Severe Weather on mobile